Time;durP1;ratioP1;P1;durP2;ratioP2;P2;SDS_P1;SDS_P2;PMS_P1;PMS_P2;Temp;Humidity;BMP_temperature;BMP_pressure;BME280_temperature;BME280_humidity;BME280_pressure;Samples;Min_cycle;Max_cycle;Signal;HPM_P1;HPM_P2
2022/11/02 00:03:37;;;;;;;5.60;1.65;;;;;;;;;;10539541;28;20056;-79
2022/11/02 00:08:41;;;;;;;4.65;2.17;;;;;;;;;;10536935;28;20382;-78
2022/11/02 00:13:43;;;;;;;3.38;1.88;;;;;;;;;;10535012;28;20078;-79
2022/11/02 00:18:47;;;;;;;2.95;1.75;;;;;;;;;;10534740;28;20073;-79
2022/11/02 00:23:52;;;;;;;5.18;2.45;;;;;;;;;;10536765;28;20032;-79
2022/11/02 00:28:54;;;;;;;5.68;1.88;;;;;;;;;;10525409;28;20051;-79
2022/11/02 00:33:57;;;;;;;7.13;2.10;;;;;;;;;;10533434;28;20474;-79
2022/11/02 00:39:01;;;;;;;6.40;2.30;;;;;;;;;;10525243;28;20436;-79
2022/11/02 00:44:04;;;;;;;5.70;2.10;;;;;;;;;;10541558;28;20492;-77
2022/11/02 00:49:06;;;;;;;5.57;3.10;;;;;;;;;;10536384;28;20113;-79
2022/11/02 00:54:10;;;;;;;6.40;2.17;;;;;;;;;;10537957;28;20246;-78
2022/11/02 00:59:14;;;;;;;6.40;2.50;;;;;;;;;;10536021;28;20039;-77
2022/11/02 01:04:17;;;;;;;4.70;2.17;;;;;;;;;;10540692;28;20036;-78
2022/11/02 01:09:21;;;;;;;7.97;2.53;;;;;;;;;;10538423;28;20424;-78
2022/11/02 01:14:23;;;;;;;;;;;;;;;;;;10541087;28;20097;-79
2022/11/02 01:19:26;;;;;;;9.88;2.47;;;;;;;;;;10538374;28;19965;-77
2022/11/02 01:24:30;;;;;;;7.65;2.72;;;;;;;;;;10539536;28;20458;-77
2022/11/02 01:29:33;;;;;;;6.47;2.72;;;;;;;;;;10537587;28;20048;-78
2022/11/02 01:34:35;;;;;;;6.68;2.50;;;;;;;;;;10538546;28;20052;-79
2022/11/02 01:39:49;;;;;;;8.48;2.28;;;;;;;;;;10538090;28;20044;-79
2022/11/02 01:44:52;;;;;;;6.97;2.67;;;;;;;;;;10533005;28;20043;-79
2022/11/02 01:49:57;;;;;;;5.90;2.50;;;;;;;;;;10539174;28;20032;-79
2022/11/02 01:55:03;;;;;;;4.68;1.98;;;;;;;;;;10537618;28;20093;-80
2022/11/02 02:00:06;;;;;;;4.32;2.05;;;;;;;;;;10534307;28;20036;-78
2022/11/02 02:05:12;;;;;;;5.10;2.10;;;;;;;;;;10539225;28;20143;-79
2022/11/02 02:10:16;;;;;;;4.65;1.92;;;;;;;;;;10536983;28;20040;-78
2022/11/02 02:15:21;;;;;;;4.68;1.75;;;;;;;;;;10529282;28;20036;-78
2022/11/02 02:20:32;;;;;;;6.07;2.15;;;;;;;;;;10537723;28;20047;-78
2022/11/02 02:25:50;;;;;;;5.05;2.10;;;;;;;;;;10529078;28;20040;-77
2022/11/02 02:30:56;;;;;;;7.95;2.42;;;;;;;;;;10532605;28;20044;-78
2022/11/02 02:36:00;;;;;;;6.25;2.30;;;;;;;;;;10535934;28;20440;-78
2022/11/02 02:41:07;;;;;;;5.38;1.83;;;;;;;;;;10536995;28;20050;-78
2022/11/02 02:46:15;;;;;;;5.22;2.17;;;;;;;;;;10542358;28;20509;-78
2022/11/02 02:51:26;;;;;;;5.35;2.03;;;;;;;;;;10530472;28;20055;-79
2022/11/02 02:56:30;;;;;;;6.07;2.20;;;;;;;;;;10533380;28;20040;-78
2022/11/02 03:01:33;;;;;;;;;;;;;;;;;;10540491;28;20044;-78
2022/11/02 03:06:37;;;;;;;2.28;1.30;;;;;;;;;;10537520;28;19926;-78
2022/11/02 03:11:45;;;;;;;7.68;1.98;;;;;;;;;;10542761;28;20051;-77
2022/11/02 03:16:56;;;;;;;3.00;1.65;;;;;;;;;;10534903;28;20117;-78
2022/11/02 03:22:09;;;;;;;4.40;2.20;;;;;;;;;;10537505;28;20050;-78
2022/11/02 03:27:15;;;;;;;5.82;2.42;;;;;;;;;;10525324;28;20047;-78
2022/11/02 03:32:20;;;;;;;2.40;1.10;;;;;;;;;;10533495;28;20043;-76
2022/11/02 03:37:27;;;;;;;2.83;1.73;;;;;;;;;;10528326;28;20043;-78
2022/11/02 03:42:33;;;;;;;7.28;2.17;;;;;;;;;;10535546;28;20039;-78
2022/11/02 03:47:36;;;;;;;4.72;2.10;;;;;;;;;;10531746;28;20044;-78
2022/11/02 03:52:41;;;;;;;8.27;2.72;;;;;;;;;;10534337;28;20036;-80
2022/11/02 03:57:45;;;;;;;9.85;1.92;;;;;;;;;;10519314;28;20037;-78
2022/11/02 04:02:48;;;;;;;;;;;;;;;;;;10535079;28;20044;-78
2022/11/02 04:29:14;;;;;;;5.15;2.05;;;;;;;;;;10528174;28;20059;-78
2022/11/02 04:34:16;;;;;;;8.88;2.92;;;;;;;;;;10533496;28;20501;-78
2022/11/02 04:39:20;;;;;;;9.43;2.70;;;;;;;;;;10532392;28;20097;-78
2022/11/02 04:44:24;;;;;;;6.75;2.55;;;;;;;;;;10531786;28;20046;-78
2022/11/02 04:49:30;;;;;;;5.45;2.70;;;;;;;;;;10531851;28;20051;-78
2022/11/02 04:54:34;;;;;;;3.78;2.03;;;;;;;;;;10532093;28;20121;-78
2022/11/02 04:59:38;;;;;;;6.32;2.72;;;;;;;;;;10527525;28;20311;-78
2022/11/02 05:04:41;;;;;;;2.50;1.20;;;;;;;;;;10533257;28;20046;-79
2022/11/02 05:09:45;;;;;;;2.13;1.08;;;;;;;;;;10531011;28;20454;-79
2022/11/02 05:14:48;;;;;;;10.95;3.42;;;;;;;;;;10532616;28;20123;-78
2022/11/02 05:19:51;;;;;;;3.92;1.73;;;;;;;;;;10532423;28;20078;-78
2022/11/02 05:24:55;;;;;;;5.78;2.25;;;;;;;;;;10525604;28;20165;-79
2022/11/02 05:29:58;;;;;;;4.13;2.20;;;;;;;;;;10529363;28;20066;-78
2022/11/02 05:35:01;;;;;;;6.70;2.30;;;;;;;;;;10538752;28;20044;-77
2022/11/02 05:40:07;;;;;;;8.80;2.97;;;;;;;;;;10538793;28;20209;-78
2022/11/02 05:45:10;;;;;;;1.88;0.90;;;;;;;;;;10542585;28;20043;-78
2022/11/02 05:50:12;;;;;;;7.70;2.55;;;;;;;;;;10542944;28;20105;-78
2022/11/02 05:55:16;;;;;;;10.32;2.67;;;;;;;;;;10544608;28;20040;-78
2022/11/02 06:00:19;;;;;;;;;;;;;;;;;;10532804;28;20058;-78
2022/11/02 06:05:22;;;;;;;2.85;1.95;;;;;;;;;;10541465;28;20406;-78
2022/11/02 06:10:26;;;;;;;7.47;2.60;;;;;;;;;;10542049;28;20074;-77
2022/11/02 06:15:28;;;;;;;;;;;;;;;;;;10532977;28;20049;-77
2022/11/02 06:20:31;;;;;;;6.13;2.65;;;;;;;;;;10540845;28;20312;-78
2022/11/02 06:25:36;;;;;;;8.27;2.78;;;;;;;;;;10536039;28;20043;-79
2022/11/02 06:30:39;;;;;;;8.00;2.50;;;;;;;;;;10532196;28;20043;-78
2022/11/02 06:35:44;;;;;;;3.75;1.10;;;;;;;;;;10535687;28;20093;-79
2022/11/02 06:40:54;;;;;;;3.35;1.48;;;;;;;;;;10536810;28;20055;-79
2022/11/02 06:45:57;;;;;;;6.45;2.70;;;;;;;;;;10534226;28;20123;-79
2022/11/02 06:51:00;;;;;;;6.60;2.90;;;;;;;;;;10536478;28;20040;-79
2022/11/02 06:56:04;;;;;;;1.30;1.00;;;;;;;;;;10531957;28;20036;-78
2022/11/02 07:01:08;;;;;;;7.13;2.53;;;;;;;;;;10532219;28;20089;-77
2022/11/02 07:06:10;;;;;;;7.32;2.65;;;;;;;;;;10535611;28;20044;-79
2022/11/02 07:11:17;;;;;;;7.65;3.15;;;;;;;;;;10535742;28;20036;-79
2022/11/02 07:16:20;;;;;;;7.05;2.40;;;;;;;;;;10534340;28;20044;-79
2022/11/02 07:21:22;;;;;;;8.75;2.63;;;;;;;;;;10535794;28;20067;-80
2022/11/02 07:26:26;;;;;;;3.40;2.17;;;;;;;;;;10527198;28;20032;-79
2022/11/02 07:31:31;;;;;;;8.10;3.00;;;;;;;;;;10533916;28;20055;-80
2022/11/02 07:36:34;;;;;;;6.95;2.70;;;;;;;;;;10528354;28;20051;-79
2022/11/02 07:41:38;;;;;;;6.63;2.72;;;;;;;;;;10536017;28;20044;-80
2022/11/02 07:46:42;;;;;;;7.05;2.53;;;;;;;;;;10527620;28;20048;-80
2022/11/02 07:51:45;;;;;;;5.82;2.80;;;;;;;;;;10534747;28;20036;-80
2022/11/02 07:56:49;;;;;;;5.93;2.70;;;;;;;;;;10528312;28;20378;-80
2022/11/02 08:01:52;;;;;;;4.85;1.77;;;;;;;;;;10524119;28;20090;-79
2022/11/02 08:06:54;;;;;;;6.93;2.15;;;;;;;;;;10533833;28;20047;-78
2022/11/02 08:11:58;;;;;;;5.70;2.10;;;;;;;;;;10535569;28;20097;-78
2022/11/02 08:17:01;;;;;;;5.43;2.13;;;;;;;;;;10530347;28;20052;-79
2022/11/02 08:22:04;;;;;;;6.00;2.22;;;;;;;;;;10535137;28;20075;-79
2022/11/02 08:27:08;;;;;;;4.88;2.10;;;;;;;;;;10528339;28;20036;-80
2022/11/02 08:32:12;;;;;;;4.95;1.90;;;;;;;;;;10534798;28;20066;-80
2022/11/02 08:37:18;;;;;;;3.22;1.67;;;;;;;;;;10532290;28;20060;-80
2022/11/02 08:42:22;;;;;;;5.20;1.85;;;;;;;;;;10493294;28;20049;-79
2022/11/02 08:47:25;;;;;;;5.28;1.70;;;;;;;;;;10510937;28;20054;-80
2022/11/02 08:52:28;;;;;;;;;;;;;;;;;;10536231;28;20040;-79
2022/11/02 08:57:32;;;;;;;8.48;1.90;;;;;;;;;;10532839;28;20331;-79
2022/11/02 09:02:34;;;;;;;9.63;2.13;;;;;;;;;;10537946;28;20047;-78
2022/11/02 09:07:37;;;;;;;8.32;2.33;;;;;;;;;;10548441;28;20040;-79
2022/11/02 09:12:41;;;;;;;6.70;1.85;;;;;;;;;;10547365;28;20144;-77
2022/11/02 09:17:46;;;;;;;5.68;2.00;;;;;;;;;;10548974;28;20070;-79
2022/11/02 09:22:49;;;;;;;2.80;1.20;;;;;;;;;;10548025;28;20581;-79
2022/11/02 09:27:54;;;;;;;4.50;1.45;;;;;;;;;;10539101;28;20047;-79
2022/11/02 09:32:58;;;;;;;6.32;1.20;;;;;;;;;;10550256;28;20076;-78
2022/11/02 09:38:01;;;;;;;2.53;1.17;;;;;;;;;;10542108;28;20044;-79
2022/11/02 09:43:09;;;;;;;3.40;1.23;;;;;;;;;;10545831;28;20047;-79
2022/11/02 09:48:15;;;;;;;1.92;0.77;;;;;;;;;;10538902;28;20127;-79
2022/11/02 09:53:39;;;;;;;5.40;1.40;;;;;;;;;;10548779;28;20037;-78
2022/11/02 09:58:45;;;;;;;5.40;1.50;;;;;;;;;;10554347;28;20067;-79
2022/11/02 10:03:57;;;;;;;2.67;1.10;;;;;;;;;;10570218;28;20051;-78
2022/11/02 10:09:01;;;;;;;3.33;0.80;;;;;;;;;;10564902;28;20078;-78
2022/11/02 10:14:10;;;;;;;4.82;1.30;;;;;;;;;;10539535;28;20516;-78
2022/11/02 10:19:15;;;;;;;3.33;1.30;;;;;;;;;;10534289;28;20488;-79
2022/11/02 10:24:22;;;;;;;5.72;1.45;;;;;;;;;;10541044;28;20139;-79
2022/11/02 10:29:32;;;;;;;3.08;1.20;;;;;;;;;;10527951;28;20119;-79
2022/11/02 10:34:35;;;;;;;4.55;1.20;;;;;;;;;;10543144;28;20481;-80
2022/11/02 10:39:42;;;;;;;4.22;1.13;;;;;;;;;;10534507;28;20040;-79
2022/11/02 10:44:54;;;;;;;10.35;1.52;;;;;;;;;;10539282;28;20107;-78
2022/11/02 10:50:15;;;;;;;1.98;1.30;;;;;;;;;;10537682;28;20097;-79
2022/11/02 10:55:21;;;;;;;3.85;1.35;;;;;;;;;;10532638;28;20037;-79
2022/11/02 11:00:27;;;;;;;2.55;1.52;;;;;;;;;;10529249;28;20040;-79
2022/11/02 11:05:30;;;;;;;3.50;1.30;;;;;;;;;;10537713;28;20386;-79
2022/11/02 11:10:36;;;;;;;4.15;1.63;;;;;;;;;;10536208;28;20036;-79
2022/11/02 11:15:41;;;;;;;3.42;1.50;;;;;;;;;;10534711;28;20044;-79
2022/11/02 11:20:47;;;;;;;3.83;1.33;;;;;;;;;;10533755;28;20044;-79
2022/11/02 11:25:54;;;;;;;6.07;1.58;;;;;;;;;;10535506;28;20060;-79
2022/11/02 11:31:09;;;;;;;5.38;1.30;;;;;;;;;;10527012;28;20521;-79
2022/11/02 11:36:20;;;;;;;5.95;1.55;;;;;;;;;;10533318;28;20040;-79
2022/11/02 11:41:23;;;;;;;6.40;1.40;;;;;;;;;;10527074;28;20134;-79
2022/11/02 11:46:40;;;;;;;4.35;1.15;;;;;;;;;;10527895;28;20043;-78
2022/11/02 11:51:44;;;;;;;3.60;1.10;;;;;;;;;;10535462;28;20044;-78
2022/11/02 11:56:46;;;;;;;6.78;1.55;;;;;;;;;;10531893;28;20043;-79
2022/11/02 12:01:51;;;;;;;4.25;1.58;;;;;;;;;;10534400;28;20043;-79
2022/11/02 12:06:59;;;;;;;3.17;1.10;;;;;;;;;;10537307;28;20604;-80
2022/11/02 12:12:06;;;;;;;3.65;1.13;;;;;;;;;;10540388;28;20036;-78
2022/11/02 12:17:25;;;;;;;4.65;1.60;;;;;;;;;;10539302;28;20525;-80
2022/11/02 12:22:33;;;;;;;4.85;1.25;;;;;;;;;;10534098;28;20195;-79
2022/11/02 12:27:40;;;;;;;7.15;1.45;;;;;;;;;;10534039;28;20040;-79
2022/11/02 12:32:58;;;;;;;3.65;1.23;;;;;;;;;;10539316;28;20043;-80
2022/11/02 12:38:09;;;;;;;5.45;1.15;;;;;;;;;;10536912;28;20041;-79
2022/11/02 12:43:19;;;;;;;4.53;1.20;;;;;;;;;;10548286;28;20546;-78
2022/11/02 12:48:37;;;;;;;5.80;1.17;;;;;;;;;;10541736;28;20124;-78
2022/11/02 12:53:43;;;;;;;3.33;1.08;;;;;;;;;;10539701;28;20047;-79
2022/11/02 12:58:46;;;;;;;0.88;0.57;;;;;;;;;;10536874;28;20028;-78
2022/11/02 13:03:53;;;;;;;2.73;0.60;;;;;;;;;;10541532;28;20098;-79
2022/11/02 13:09:01;;;;;;;3.45;1.13;;;;;;;;;;10539679;28;20408;-79
2022/11/02 13:14:06;;;;;;;2.38;0.80;;;;;;;;;;10542619;28;20054;-78
2022/11/02 13:19:15;;;;;;;3.30;0.60;;;;;;;;;;10542047;28;20481;-78
2022/11/02 13:24:19;;;;;;;2.55;0.60;;;;;;;;;;10541920;28;20676;-77
2022/11/02 13:29:23;;;;;;;4.47;0.80;;;;;;;;;;10528801;28;20040;-78
2022/11/02 13:34:34;;;;;;;4.18;0.93;;;;;;;;;;10547547;28;20040;-79
2022/11/02 13:39:44;;;;;;;3.40;0.77;;;;;;;;;;10535436;28;20117;-78
2022/11/02 13:50:47;;;;;;;1.55;0.80;;;;;;;;;;10534187;28;20558;-78
2022/11/02 13:55:59;;;;;;;1.83;0.70;;;;;;;;;;10531824;28;20044;-78
2022/11/02 14:01:12;;;;;;;3.13;0.63;;;;;;;;;;10534615;28;20081;-79
2022/11/02 14:06:26;;;;;;;3.85;0.80;;;;;;;;;;10536094;28;20128;-79
2022/11/02 14:11:36;;;;;;;3.00;0.68;;;;;;;;;;10535104;28;20139;-77
2022/11/02 14:17:00;;;;;;;0.80;0.80;;;;;;;;;;10539507;28;20570;-77
2022/11/02 14:22:21;;;;;;;5.03;1.10;;;;;;;;;;10532857;28;20086;-77
2022/11/02 14:27:29;;;;;;;5.80;0.90;;;;;;;;;;10506823;28;20582;-79
2022/11/02 14:32:40;;;;;;;3.88;0.80;;;;;;;;;;10541375;28;20032;-79
2022/11/02 14:43:46;;;;;;;5.30;1.63;;;;;;;;;;10584216;28;20079;-78
2022/11/02 14:48:56;;;;;;;2.50;0.75;;;;;;;;;;10614380;27;20088;-77
2022/11/02 14:54:05;;;;;;;3.67;1.10;;;;;;;;;;10602896;27;20128;-78
2022/11/02 14:59:20;;;;;;;1.60;1.00;;;;;;;;;;10600621;27;20050;-77
2022/11/02 15:04:25;;;;;;;7.22;2.28;;;;;;;;;;10600284;27;20087;-77
2022/11/02 15:09:53;;;;;;;3.88;0.70;;;;;;;;;;10605546;27;20051;-78
2022/11/02 15:15:01;;;;;;;3.00;1.33;;;;;;;;;;10623350;27;20052;-78
2022/11/02 15:20:28;;;;;;;4.65;1.10;;;;;;;;;;10651401;27;20296;-78
2022/11/02 15:25:48;;;;;;;3.47;0.93;;;;;;;;;;10634358;27;20076;-77
2022/11/02 15:31:11;;;;;;;6.43;2.58;;;;;;;;;;10612783;27;20047;-78
2022/11/02 15:36:32;;;;;;;3.72;1.30;;;;;;;;;;10659439;27;20040;-78
2022/11/02 15:42:05;;;;;;;2.40;1.17;;;;;;;;;;10655355;27;20047;-78
2022/11/02 15:47:18;;;;;;;2.85;1.20;;;;;;;;;;10648446;27;20043;-78
2022/11/02 15:52:32;;;;;;;3.42;1.27;;;;;;;;;;10639357;27;20065;-78
2022/11/02 15:58:16;;;;;;;2.53;1.10;;;;;;;;;;10613843;27;20035;-79
2022/11/02 16:03:37;;;;;;;5.63;1.60;;;;;;;;;;10613290;27;20515;-78
2022/11/02 16:08:56;;;;;;;6.07;1.40;;;;;;;;;;10617498;27;20051;-78
2022/11/02 16:14:17;;;;;;;2.95;1.38;;;;;;;;;;10628838;27;20050;-78
2022/11/02 16:19:30;;;;;;;4.47;1.60;;;;;;;;;;10608950;27;20043;-79
2022/11/02 16:24:42;;;;;;;4.47;1.55;;;;;;;;;;10598783;27;20035;-78
2022/11/02 16:30:05;;;;;;;4.50;1.45;;;;;;;;;;10603961;27;20050;-78
2022/11/02 16:35:24;;;;;;;7.22;1.67;;;;;;;;;;10621504;27;20071;-78
2022/11/02 16:40:40;;;;;;;2.70;1.33;;;;;;;;;;10615389;27;20130;-79
2022/11/02 16:45:49;;;;;;;3.85;1.50;;;;;;;;;;10602917;28;20043;-78
2022/11/02 16:51:17;;;;;;;6.38;1.80;;;;;;;;;;10624726;28;20070;-78
2022/11/02 16:56:29;;;;;;;4.93;1.50;;;;;;;;;;10622959;28;20073;-78
2022/11/02 17:01:39;;;;;;;6.72;2.10;;;;;;;;;;10555852;28;20301;-78
2022/11/02 17:07:06;;;;;;;5.03;2.17;;;;;;;;;;10581090;28;20061;-79
2022/11/02 17:12:34;;;;;;;11.70;2.58;;;;;;;;;;10557676;28;20036;-79
2022/11/02 17:23:40;;;;;;;7.88;2.30;;;;;;;;;;10615896;28;20081;-79
2022/11/02 17:29:16;;;;;;;6.13;2.47;;;;;;;;;;10617584;27;20051;-79
2022/11/02 17:34:40;;;;;;;6.28;2.20;;;;;;;;;;10624649;27;20055;-78
2022/11/02 17:40:04;;;;;;;11.93;2.70;;;;;;;;;;10605133;27;20116;-78
2022/11/02 17:45:27;;;;;;;6.90;2.55;;;;;;;;;;10621266;27;20392;-78
2022/11/02 17:50:38;;;;;;;6.22;2.13;;;;;;;;;;10618013;27;20101;-79
2022/11/02 17:56:07;;;;;;;7.65;2.88;;;;;;;;;;10618461;27;20058;-79
2022/11/02 18:01:17;;;;;;;7.70;3.55;;;;;;;;;;10618804;27;20050;-78
2022/11/02 18:06:48;;;;;;;13.95;4.43;;;;;;;;;;10602504;27;20043;-79
2022/11/02 18:12:08;;;;;;;17.63;6.03;;;;;;;;;;10631614;27;20289;-79
2022/11/02 18:17:19;;;;;;;10.73;4.35;;;;;;;;;;10621071;27;20051;-78
2022/11/02 18:27:54;;;;;;;14.07;3.30;;;;;;;;;;10620429;27;20143;-79
2022/11/02 18:33:29;;;;;;;3.15;1.38;;;;;;;;;;10624040;27;20069;-78
2022/11/02 18:44:13;;;;;;;1.92;1.27;;;;;;;;;;10601135;27;20049;-79
2022/11/02 18:49:36;;;;;;;9.40;3.13;;;;;;;;;;10602715;27;20296;-78
2022/11/02 18:54:51;;;;;;;13.68;4.20;;;;;;;;;;10613198;27;20385;-78
2022/11/02 19:00:01;;;;;;;16.23;6.22;;;;;;;;;;10615479;27;20519;-78
2022/11/02 19:10:50;;;;;;;11.18;4.22;;;;;;;;;;10590167;27;20051;-79
2022/11/02 19:15:59;;;;;;;13.93;4.33;;;;;;;;;;10619704;27;20043;-79
2022/11/02 19:26:28;;;;;;;8.48;3.42;;;;;;;;;;10617791;27;20046;-79
2022/11/02 19:31:39;;;;;;;12.80;4.25;;;;;;;;;;10614406;27;20038;-79
2022/11/02 19:42:29;;;;;;;9.77;3.95;;;;;;;;;;10576560;28;20514;-80
2022/11/02 19:48:21;;;;;;;7.65;2.72;;;;;;;;;;10615169;27;20433;-79
2022/11/02 19:53:39;;;;;;;9.57;4.07;;;;;;;;;;10610848;27;20051;-79
2022/11/02 19:58:53;;;;;;;14.23;4.55;;;;;;;;;;10613572;27;20538;-78
2022/11/02 20:04:05;;;;;;;7.35;3.35;;;;;;;;;;10619677;27;20054;-79
2022/11/02 20:09:25;;;;;;;12.32;4.70;;;;;;;;;;10602135;27;20055;-79
2022/11/02 20:14:37;;;;;;;5.82;2.58;;;;;;;;;;10619835;27;20154;-79
2022/11/02 20:19:50;;;;;;;10.23;2.67;;;;;;;;;;10594867;27;20039;-80
2022/11/02 20:25:09;;;;;;;10.75;3.20;;;;;;;;;;10617824;27;20146;-77
2022/11/02 20:35:48;;;;;;;2.50;1.38;;;;;;;;;;10616927;28;20122;-78
2022/11/02 20:41:00;;;;;;;4.20;2.65;;;;;;;;;;10610249;28;20210;-78
2022/11/02 20:46:15;;;;;;;3.95;1.90;;;;;;;;;;10610427;28;20062;-79
2022/11/02 20:51:40;;;;;;;3.63;1.37;;;;;;;;;;10611822;28;20051;-79
2022/11/02 20:56:49;;;;;;;1.88;1.27;;;;;;;;;;10596535;28;20066;-79
2022/11/02 21:02:01;;;;;;;6.20;2.40;;;;;;;;;;10611314;27;20439;-79
2022/11/02 21:18:21;;;;;;;3.13;1.48;;;;;;;;;;10621548;27;20122;-80
2022/11/02 21:23:31;;;;;;;5.32;2.35;;;;;;;;;;10609847;27;20060;-79
2022/11/02 21:28:52;;;;;;;7.50;3.17;;;;;;;;;;10621596;27;20126;-79
2022/11/02 21:33:56;;;;;;;8.13;2.80;;;;;;;;;;10625329;27;20054;-78
2022/11/02 21:44:29;;;;;;;9.25;3.20;;;;;;;;;;10603036;27;20040;-77
2022/11/02 21:49:36;;;;;;;4.43;1.85;;;;;;;;;;10623781;27;20043;-78
2022/11/02 22:00:09;;;;;;;9.90;3.28;;;;;;;;;;10614967;27;20391;-78
2022/11/02 22:10:48;;;;;;;9.75;3.03;;;;;;;;;;10596050;27;20460;-78
2022/11/02 22:15:59;;;;;;;7.07;2.90;;;;;;;;;;10621064;27;20114;-78
2022/11/02 22:21:14;;;;;;;8.82;2.60;;;;;;;;;;10622423;27;20032;-79
2022/11/02 22:26:35;;;;;;;10.48;3.50;;;;;;;;;;10617992;27;20523;-79
2022/11/02 22:31:47;;;;;;;6.85;2.72;;;;;;;;;;10617382;27;20035;-79
2022/11/02 22:38:47;;;;;;;5.43;2.60;;;;;;;;;;10619680;27;20070;-79
2022/11/02 22:42:31;;;;;;;;;;;;;;;;;;10561640;28;20055;-79
2022/11/02 22:47:50;;;;;;;6.20;2.60;;;;;;;;;;10588432;27;19919;-79
2022/11/02 22:52:55;;;;;;;6.47;3.35;;;;;;;;;;10617064;27;20078;-79
2022/11/02 22:58:06;;;;;;;4.50;2.13;;;;;;;;;;10616154;27;20047;-79
2022/11/02 23:08:40;;;;;;;8.93;2.70;;;;;;;;;;10594309;27;20059;-79
2022/11/02 23:13:57;;;;;;;9.75;3.00;;;;;;;;;;10621123;27;20091;-79
2022/11/02 23:41:01;;;;;;;12.63;3.60;;;;;;;;;;10566994;28;20397;-79
2022/11/02 23:46:04;;;;;;;7.97;3.00;;;;;;;;;;10565535;28;20101;-80
2022/11/02 23:56:43;;;;;;;10.52;2.97;;;;;;;;;;10563009;28;20040;-79
